Time;durP1;ratioP1;P1;durP2;ratioP2;P2;SDS_P1;SDS_P2;PMS_P1;PMS_P2;Temp;Humidity;BMP_temperature;BMP_pressure;BME280_temperature;BME280_humidity;BME280_pressure;Samples;Min_cycle;Max_cycle;Signal;HPM_P1;HPM_P2
2022/01/08 00:01:14;;;;;;;62.42;22.15;;;;;;;;;;6266890;28;20075;-60
2022/01/08 00:04:14;;;;;;;65.72;25.33;;;;;;;;;;6266080;28;20075;-59
2022/01/08 00:07:15;;;;;;;54.88;23.23;;;;;;;;;;6264940;28;20084;-61
2022/01/08 00:10:15;;;;;;;56.83;21.05;;;;;;;;;;6264476;28;20128;-60
2022/01/08 00:13:16;;;;;;;62.80;20.65;;;;;;;;;;6261534;28;20124;-61
2022/01/08 00:16:17;;;;;;;71.72;21.17;;;;;;;;;;6263448;28;20054;-62
2022/01/08 00:19:18;;;;;;;62.50;18.98;;;;;;;;;;6265274;28;20044;-62
2022/01/08 00:22:19;;;;;;;66.03;18.42;;;;;;;;;;6264742;28;20052;-61
2022/01/08 00:25:19;;;;;;;60.88;19.92;;;;;;;;;;6263620;28;20143;-60
2022/01/08 00:28:20;;;;;;;64.00;21.13;;;;;;;;;;6263279;28;20084;-60
2022/01/08 00:31:21;;;;;;;79.07;25.73;;;;;;;;;;6263613;28;20056;-61
2022/01/08 00:34:21;;;;;;;85.85;28.80;;;;;;;;;;6266668;28;20073;-61
2022/01/08 00:37:22;;;;;;;62.13;19.75;;;;;;;;;;6262082;28;20068;-60
2022/01/08 00:40:23;;;;;;;95.30;27.00;;;;;;;;;;6261947;28;20474;-60
2022/01/08 00:43:24;;;;;;;72.25;21.30;;;;;;;;;;6264659;28;20483;-61
2022/01/08 00:46:25;;;;;;;49.13;16.42;;;;;;;;;;6260860;28;20091;-60
2022/01/08 00:49:27;;;;;;;32.13;11.85;;;;;;;;;;6264113;28;20065;-60
2022/01/08 00:52:28;;;;;;;34.03;11.90;;;;;;;;;;6260586;28;20398;-60
2022/01/08 00:55:28;;;;;;;29.55;11.60;;;;;;;;;;6262413;28;20297;-62
2022/01/08 00:58:30;;;;;;;22.52;9.70;;;;;;;;;;6266010;28;20392;-60
2022/01/08 01:01:31;;;;;;;19.48;8.57;;;;;;;;;;6263304;28;21209;-61
2022/01/08 01:04:31;;;;;;;19.33;8.38;;;;;;;;;;6265335;28;20036;-60
2022/01/08 01:07:32;;;;;;;20.40;7.95;;;;;;;;;;6260644;28;20045;-62
2022/01/08 01:10:33;;;;;;;23.95;8.43;;;;;;;;;;6262715;28;20040;-61
2022/01/08 01:13:34;;;;;;;22.27;8.20;;;;;;;;;;6264488;28;20188;-62
2022/01/08 01:16:34;;;;;;;20.55;8.68;;;;;;;;;;6261996;28;20044;-62
2022/01/08 01:19:36;;;;;;;19.75;8.35;;;;;;;;;;6263243;28;20423;-62
2022/01/08 01:22:54;;;;;;;21.73;8.77;;;;;;;;;;6262928;28;20044;-63
2022/01/08 01:26:00;;;;;;;28.05;10.60;;;;;;;;;;6260828;28;20579;-60
2022/01/08 01:29:23;;;;;;;25.65;9.70;;;;;;;;;;6260628;28;20043;-60
2022/01/08 01:42:50;;;;;;;20.63;8.50;;;;;;;;;;6264716;28;20045;-60
2022/01/08 01:49:05;;;;;;;19.90;8.40;;;;;;;;;;6263068;28;20074;-62
2022/01/08 01:52:08;;;;;;;21.88;9.27;;;;;;;;;;6262567;28;21108;-62
2022/01/08 01:55:09;;;;;;;27.80;11.10;;;;;;;;;;6259239;28;20081;-62
2022/01/08 01:58:10;;;;;;;34.00;13.85;;;;;;;;;;6262279;28;20932;-61
2022/01/08 02:01:11;;;;;;;31.63;13.05;;;;;;;;;;6261073;28;20431;-62
2022/01/08 02:04:11;;;;;;;37.60;13.40;;;;;;;;;;6262521;28;20059;-61
2022/01/08 02:07:12;;;;;;;28.85;11.68;;;;;;;;;;6265675;28;20055;-61
2022/01/08 02:10:13;;;;;;;35.95;15.13;;;;;;;;;;6266724;28;20080;-62
2022/01/08 02:13:28;;;;;;;44.78;15.98;;;;;;;;;;6264048;28;20047;-62
2022/01/08 02:16:29;;;;;;;30.33;11.77;;;;;;;;;;6267472;28;20052;-61
2022/01/08 02:19:30;;;;;;;37.75;11.80;;;;;;;;;;6266332;28;20151;-61
2022/01/08 02:22:31;;;;;;;29.05;12.30;;;;;;;;;;6263993;28;20770;-62
2022/01/08 02:25:32;;;;;;;37.67;14.60;;;;;;;;;;6263937;28;20044;-60
2022/01/08 02:28:34;;;;;;;43.22;17.55;;;;;;;;;;6274693;28;20041;-60
2022/01/08 02:31:34;;;;;;;41.58;15.88;;;;;;;;;;6277187;28;20135;-59
2022/01/08 02:34:38;;;;;;;52.58;20.35;;;;;;;;;;6285874;28;20044;-60
2022/01/08 02:37:39;;;;;;;53.22;18.73;;;;;;;;;;6289194;28;20078;-60
2022/01/08 02:40:39;;;;;;;36.83;13.35;;;;;;;;;;6292240;28;20044;-61
2022/01/08 02:43:45;;;;;;;41.70;14.93;;;;;;;;;;6288743;28;20049;-61
2022/01/08 02:46:45;;;;;;;39.92;16.23;;;;;;;;;;6289560;28;20106;-61
2022/01/08 02:49:51;;;;;;;51.63;18.85;;;;;;;;;;6291664;28;20505;-61
2022/01/08 02:52:52;;;;;;;47.28;18.45;;;;;;;;;;6292411;28;20091;-63
2022/01/08 02:55:53;;;;;;;58.60;21.02;;;;;;;;;;6287836;28;20045;-62
2022/01/08 02:58:54;;;;;;;56.72;20.95;;;;;;;;;;6291405;28;20098;-63
2022/01/08 03:01:54;;;;;;;57.83;21.58;;;;;;;;;;6290122;28;20135;-60
2022/01/08 03:04:55;;;;;;;57.17;20.40;;;;;;;;;;6285986;28;20040;-62
2022/01/08 03:07:56;;;;;;;66.38;25.13;;;;;;;;;;6291447;28;20082;-61
2022/01/08 03:10:56;;;;;;;69.35;23.67;;;;;;;;;;6290920;28;20102;-62
2022/01/08 03:13:57;;;;;;;64.75;25.77;;;;;;;;;;6282979;28;20047;-60
2022/01/08 03:16:58;;;;;;;64.63;24.42;;;;;;;;;;6286387;28;20073;-61
2022/01/08 03:20:04;;;;;;;63.50;25.88;;;;;;;;;;6289266;28;20554;-61
2022/01/08 03:23:13;;;;;;;77.03;27.08;;;;;;;;;;6278771;28;20037;-61
2022/01/08 03:26:16;;;;;;;66.82;24.88;;;;;;;;;;6279212;28;20036;-61
2022/01/08 03:29:17;;;;;;;84.30;30.85;;;;;;;;;;6276705;28;20794;-62
2022/01/08 03:32:19;;;;;;;95.82;37.78;;;;;;;;;;6279321;28;20049;-62
2022/01/08 03:35:20;;;;;;;126.35;46.45;;;;;;;;;;6277863;28;20084;-62
2022/01/08 03:38:21;;;;;;;77.35;29.63;;;;;;;;;;6281011;28;20045;-62
2022/01/08 03:41:22;;;;;;;75.97;30.20;;;;;;;;;;6281064;28;20487;-61
2022/01/08 03:44:22;;;;;;;79.22;30.42;;;;;;;;;;6279696;28;20037;-61
2022/01/08 03:47:42;;;;;;;70.60;28.15;;;;;;;;;;6276427;28;20419;-61
2022/01/08 03:50:42;;;;;;;74.45;29.42;;;;;;;;;;6272528;28;20122;-62
2022/01/08 03:53:44;;;;;;;78.80;30.83;;;;;;;;;;6280537;28;20045;-62
2022/01/08 03:56:45;;;;;;;79.47;31.67;;;;;;;;;;6277470;28;20045;-63
2022/01/08 03:59:46;;;;;;;77.90;31.70;;;;;;;;;;6278892;28;21137;-63
2022/01/08 04:02:47;;;;;;;73.88;26.63;;;;;;;;;;6278927;28;20056;-60
2022/01/08 04:05:49;;;;;;;79.30;30.23;;;;;;;;;;6282351;28;20175;-62
2022/01/08 04:08:56;;;;;;;84.50;30.90;;;;;;;;;;6275929;28;20048;-62
2022/01/08 04:11:57;;;;;;;81.63;31.23;;;;;;;;;;6278774;28;20056;-59
2022/01/08 04:15:06;;;;;;;87.78;35.90;;;;;;;;;;6276357;28;20052;-60
2022/01/08 04:18:09;;;;;;;79.28;34.20;;;;;;;;;;6276835;28;20048;-62
2022/01/08 04:21:59;;;;;;;79.25;31.67;;;;;;;;;;6276204;28;20044;-60
2022/01/08 04:24:36;;;;;;;90.38;33.78;;;;;;;;;;6270332;28;20139;-62
2022/01/08 04:27:37;;;;;;;85.25;31.63;;;;;;;;;;6275341;28;20075;-63
2022/01/08 04:30:38;;;;;;;73.57;28.52;;;;;;;;;;6275184;28;20509;-63
2022/01/08 04:33:39;;;;;;;77.72;30.50;;;;;;;;;;6277314;28;20048;-61
2022/01/08 04:36:39;;;;;;;69.03;28.63;;;;;;;;;;6277675;28;20048;-60
2022/01/08 04:39:40;;;;;;;77.05;29.90;;;;;;;;;;6277325;28;20551;-62
2022/01/08 04:42:41;;;;;;;74.25;30.80;;;;;;;;;;6274510;28;20052;-61
2022/01/08 04:45:42;;;;;;;77.95;30.48;;;;;;;;;;6273419;28;20053;-61
2022/01/08 04:48:43;;;;;;;71.85;28.83;;;;;;;;;;6276408;28;20974;-61
2022/01/08 04:51:43;;;;;;;75.45;31.52;;;;;;;;;;6279920;28;20040;-61
2022/01/08 04:54:44;;;;;;;65.90;27.52;;;;;;;;;;6290109;28;20095;-61
2022/01/08 04:57:45;;;;;;;77.15;29.50;;;;;;;;;;6285354;28;20478;-61
2022/01/08 05:00:46;;;;;;;77.90;28.90;;;;;;;;;;6273045;28;20079;-61
2022/01/08 05:03:47;;;;;;;82.93;32.63;;;;;;;;;;6276110;28;20088;-60
2022/01/08 05:06:47;;;;;;;96.15;33.38;;;;;;;;;;6275995;28;20041;-61
2022/01/08 05:09:48;;;;;;;104.57;37.55;;;;;;;;;;6274813;28;20045;-60
2022/01/08 05:12:49;;;;;;;103.65;37.03;;;;;;;;;;6274530;28;20495;-61
2022/01/08 05:15:49;;;;;;;88.57;35.45;;;;;;;;;;6278055;28;20198;-61
2022/01/08 05:18:53;;;;;;;106.00;35.65;;;;;;;;;;6277599;28;20055;-61
2022/01/08 05:21:57;;;;;;;95.32;37.30;;;;;;;;;;6274997;28;20060;-62
2022/01/08 05:24:58;;;;;;;113.55;38.63;;;;;;;;;;6272586;28;20064;-61
2022/01/08 05:27:59;;;;;;;111.38;39.22;;;;;;;;;;6274448;28;20052;-62
2022/01/08 05:31:00;;;;;;;123.47;40.80;;;;;;;;;;6281919;28;20086;-61
2022/01/08 05:34:01;;;;;;;135.43;44.22;;;;;;;;;;6278011;28;20135;-62
2022/01/08 05:37:03;;;;;;;131.68;42.90;;;;;;;;;;6276034;28;20841;-61
2022/01/08 05:40:04;;;;;;;122.47;39.33;;;;;;;;;;6280810;28;20534;-61
2022/01/08 05:43:05;;;;;;;118.60;41.53;;;;;;;;;;6276304;28;20048;-61
2022/01/08 05:46:05;;;;;;;139.38;46.78;;;;;;;;;;6284405;28;20135;-61
2022/01/08 05:49:06;;;;;;;113.95;42.25;;;;;;;;;;6283703;28;20072;-61
2022/01/08 05:52:10;;;;;;;123.97;41.83;;;;;;;;;;6278049;28;20044;-59
2022/01/08 05:55:11;;;;;;;90.38;34.78;;;;;;;;;;6278828;28;20868;-61
2022/01/08 05:58:11;;;;;;;94.80;34.42;;;;;;;;;;6279772;28;20131;-61
2022/01/08 06:01:12;;;;;;;101.93;37.70;;;;;;;;;;6280532;28;20447;-61
2022/01/08 06:04:13;;;;;;;99.35;34.88;;;;;;;;;;6280071;28;20036;-62
2022/01/08 06:07:14;;;;;;;101.57;36.28;;;;;;;;;;6283117;28;20048;-61
2022/01/08 06:10:15;;;;;;;93.95;36.17;;;;;;;;;;6280791;28;20491;-62
2022/01/08 06:13:16;;;;;;;90.55;33.42;;;;;;;;;;6280233;28;20032;-62
2022/01/08 06:16:16;;;;;;;102.63;35.83;;;;;;;;;;6284094;28;20133;-60
2022/01/08 06:19:17;;;;;;;85.30;33.45;;;;;;;;;;6283357;28;20144;-61
2022/01/08 06:22:18;;;;;;;83.53;33.28;;;;;;;;;;6282273;28;20131;-62
2022/01/08 06:25:18;;;;;;;82.75;33.05;;;;;;;;;;6278471;28;20076;-60
2022/01/08 06:28:19;;;;;;;81.38;32.97;;;;;;;;;;6278317;28;20076;-60
2022/01/08 06:31:21;;;;;;;75.82;30.40;;;;;;;;;;6278460;28;20117;-62
2022/01/08 06:34:22;;;;;;;82.55;30.13;;;;;;;;;;6279900;28;20040;-62
2022/01/08 06:37:23;;;;;;;88.70;34.00;;;;;;;;;;6280791;28;20045;-61
2022/01/08 06:40:23;;;;;;;78.05;32.28;;;;;;;;;;6278276;28;20070;-60
2022/01/08 06:43:24;;;;;;;79.78;32.13;;;;;;;;;;6277060;28;20033;-60
2022/01/08 06:46:25;;;;;;;85.57;32.30;;;;;;;;;;6274824;28;20040;-60
2022/01/08 06:49:26;;;;;;;74.03;30.35;;;;;;;;;;6275836;28;20144;-61
2022/01/08 06:52:27;;;;;;;84.40;32.60;;;;;;;;;;6278712;28;20057;-61
2022/01/08 06:55:28;;;;;;;92.10;34.70;;;;;;;;;;6286529;28;20078;-61
2022/01/08 06:58:29;;;;;;;87.57;32.90;;;;;;;;;;6287278;28;20109;-61
2022/01/08 07:01:30;;;;;;;80.88;33.15;;;;;;;;;;6280233;28;20134;-60
2022/01/08 07:04:31;;;;;;;79.53;31.77;;;;;;;;;;6280647;28;20147;-60
2022/01/08 07:07:31;;;;;;;78.13;30.73;;;;;;;;;;6277794;28;20132;-60
2022/01/08 07:10:33;;;;;;;73.25;31.60;;;;;;;;;;6279335;28;20200;-60
2022/01/08 07:13:34;;;;;;;77.00;32.87;;;;;;;;;;6279667;28;20040;-61
2022/01/08 07:16:34;;;;;;;87.90;34.70;;;;;;;;;;6281317;28;20462;-63
2022/01/08 07:19:35;;;;;;;87.93;35.63;;;;;;;;;;6278930;28;20190;-63
2022/01/08 07:22:36;;;;;;;102.88;38.22;;;;;;;;;;6276015;28;20479;-61
2022/01/08 07:25:36;;;;;;;100.80;38.92;;;;;;;;;;6274842;28;20147;-61
2022/01/08 07:28:39;;;;;;;87.35;35.20;;;;;;;;;;6282272;28;20052;-62
2022/01/08 07:31:40;;;;;;;103.40;39.15;;;;;;;;;;6290089;28;20076;-61
2022/01/08 07:34:41;;;;;;;101.07;40.08;;;;;;;;;;6291528;28;20039;-59
2022/01/08 07:37:43;;;;;;;80.30;32.13;;;;;;;;;;6290772;28;20510;-60
2022/01/08 07:40:43;;;;;;;71.30;28.35;;;;;;;;;;6290312;28;20083;-61
2022/01/08 07:43:44;;;;;;;67.13;25.63;;;;;;;;;;6290771;28;20051;-60
2022/01/08 07:46:45;;;;;;;61.33;23.77;;;;;;;;;;6289177;28;20613;-60
2022/01/08 07:49:45;;;;;;;68.10;24.65;;;;;;;;;;6287491;28;20418;-60
2022/01/08 07:52:46;;;;;;;64.20;24.98;;;;;;;;;;6274566;28;20118;-61
2022/01/08 07:55:47;;;;;;;69.47;26.23;;;;;;;;;;6290794;28;20041;-61
2022/01/08 07:58:47;;;;;;;61.15;27.38;;;;;;;;;;6274869;28;20071;-63
2022/01/08 08:01:48;;;;;;;88.43;33.03;;;;;;;;;;6288923;28;20487;-62
2022/01/08 08:04:49;;;;;;;90.85;34.47;;;;;;;;;;6288974;28;20099;-62
2022/01/08 08:07:49;;;;;;;85.88;31.30;;;;;;;;;;6282056;28;20048;-61
2022/01/08 08:10:50;;;;;;;150.95;43.97;;;;;;;;;;6276409;28;20076;-62
2022/01/08 08:13:51;;;;;;;167.35;51.80;;;;;;;;;;6290112;28;20060;-62
2022/01/08 08:16:51;;;;;;;102.55;39.28;;;;;;;;;;6286934;28;20075;-60
2022/01/08 08:19:52;;;;;;;115.78;45.80;;;;;;;;;;6289533;28;20411;-60
2022/01/08 08:22:53;;;;;;;102.55;41.90;;;;;;;;;;6289907;28;20121;-61
2022/01/08 08:26:02;;;;;;;100.55;41.13;;;;;;;;;;6310647;28;20409;-61
2022/01/08 08:29:03;;;;;;;94.60;38.85;;;;;;;;;;6295235;28;20049;-63
2022/01/08 08:32:03;;;;;;;80.43;31.63;;;;;;;;;;6285361;28;20071;-61
2022/01/08 08:35:05;;;;;;;89.82;36.85;;;;;;;;;;6288443;28;20044;-61
2022/01/08 08:38:05;;;;;;;131.60;46.45;;;;;;;;;;6301381;28;20445;-61
2022/01/08 08:41:06;;;;;;;58.08;24.17;;;;;;;;;;6288460;28;20056;-62
2022/01/08 08:44:07;;;;;;;123.07;41.65;;;;;;;;;;6300312;28;20414;-61
2022/01/08 08:47:08;;;;;;;77.60;29.25;;;;;;;;;;6296718;28;20478;-63
2022/01/08 08:50:12;;;;;;;83.15;32.03;;;;;;;;;;6293436;28;20165;-61
2022/01/08 08:53:13;;;;;;;87.00;35.35;;;;;;;;;;6285397;28;20409;-61
2022/01/08 08:56:14;;;;;;;68.50;28.70;;;;;;;;;;6289028;28;20040;-61
2022/01/08 08:59:14;;;;;;;58.20;23.23;;;;;;;;;;6291227;28;20057;-61
2022/01/08 09:02:15;;;;;;;53.10;20.65;;;;;;;;;;6279797;28;20072;-61
2022/01/08 09:05:16;;;;;;;48.38;20.88;;;;;;;;;;6278623;28;20128;-61
2022/01/08 09:08:16;;;;;;;52.80;20.92;;;;;;;;;;6280235;28;20190;-61
2022/01/08 09:11:17;;;;;;;58.72;22.63;;;;;;;;;;6278158;28;20049;-61
2022/01/08 09:14:18;;;;;;;42.00;17.15;;;;;;;;;;6280042;28;20049;-61
2022/01/08 09:17:20;;;;;;;44.75;18.42;;;;;;;;;;6281206;28;20132;-62
2022/01/08 09:20:21;;;;;;;42.72;16.88;;;;;;;;;;6280517;28;20045;-62
2022/01/08 09:23:21;;;;;;;38.65;14.60;;;;;;;;;;6279151;28;20140;-61
2022/01/08 09:26:22;;;;;;;27.65;12.95;;;;;;;;;;6283615;28;20040;-61
2022/01/08 09:29:23;;;;;;;30.35;13.63;;;;;;;;;;6278262;28;20044;-61
2022/01/08 09:32:25;;;;;;;25.13;11.82;;;;;;;;;;6277951;28;20080;-61
2022/01/08 09:35:26;;;;;;;29.92;11.65;;;;;;;;;;6272050;28;20115;-62
2022/01/08 09:38:27;;;;;;;34.05;12.63;;;;;;;;;;6266323;28;20061;-61
2022/01/08 09:41:28;;;;;;;26.77;11.32;;;;;;;;;;6263379;28;20522;-62
2022/01/08 09:44:29;;;;;;;26.02;12.02;;;;;;;;;;6260367;28;20045;-61
2022/01/08 09:47:29;;;;;;;30.33;12.82;;;;;;;;;;6264399;28;20519;-61
2022/01/08 09:50:30;;;;;;;29.02;12.77;;;;;;;;;;6263225;28;20123;-61
2022/01/08 09:53:31;;;;;;;31.95;13.20;;;;;;;;;;6261189;28;20415;-61
2022/01/08 09:56:32;;;;;;;30.38;14.23;;;;;;;;;;6261210;28;20049;-61
2022/01/08 09:59:33;;;;;;;32.30;13.90;;;;;;;;;;6265336;28;20080;-61
2022/01/08 10:02:34;;;;;;;31.90;12.77;;;;;;;;;;6263369;28;20407;-61
2022/01/08 10:05:43;;;;;;;27.73;12.63;;;;;;;;;;6262206;28;20056;-61
2022/01/08 10:08:44;;;;;;;25.25;12.10;;;;;;;;;;6260669;28;20451;-61
2022/01/08 10:11:49;;;;;;;31.05;12.88;;;;;;;;;;6257844;28;20431;-60
2022/01/08 10:18:10;;;;;;;28.75;13.13;;;;;;;;;;6263077;28;20091;-61
2022/01/08 10:21:23;;;;;;;26.95;11.65;;;;;;;;;;6263203;28;20545;-61
2022/01/08 10:24:27;;;;;;;24.85;10.50;;;;;;;;;;6263203;28;20135;-61
2022/01/08 10:27:34;;;;;;;30.08;11.75;;;;;;;;;;6259417;28;20092;-60
2022/01/08 10:30:35;;;;;;;28.02;10.25;;;;;;;;;;6278611;28;20048;-61
2022/01/08 10:33:36;;;;;;;26.80;10.98;;;;;;;;;;6283132;28;20172;-62
2022/01/08 10:36:40;;;;;;;23.55;10.65;;;;;;;;;;6267815;28;20044;-61
2022/01/08 10:39:41;;;;;;;22.23;9.68;;;;;;;;;;6269786;28;20060;-67
2022/01/08 10:42:42;;;;;;;25.02;9.60;;;;;;;;;;6270042;28;20053;-62
2022/01/08 10:45:42;;;;;;;27.00;11.52;;;;;;;;;;6292168;28;20087;-62
2022/01/08 10:48:52;;;;;;;33.83;16.92;;;;;;;;;;6282154;28;20059;-61
2022/01/08 10:51:56;;;;;;;27.17;12.20;;;;;;;;;;6268933;28;20048;-62
2022/01/08 10:54:59;;;;;;;22.45;9.82;;;;;;;;;;6266261;28;20037;-62
2022/01/08 10:58:00;;;;;;;17.15;8.50;;;;;;;;;;6265929;28;20041;-62
2022/01/08 11:01:00;;;;;;;22.95;8.75;;;;;;;;;;6269682;28;20475;-62
2022/01/08 11:04:01;;;;;;;20.70;9.00;;;;;;;;;;6268624;28;20066;-62
2022/01/08 11:07:03;;;;;;;21.17;9.35;;;;;;;;;;6265769;28;20433;-63
2022/01/08 11:10:07;;;;;;;23.02;9.02;;;;;;;;;;6267955;28;20049;-62
2022/01/08 11:13:14;;;;;;;21.08;8.57;;;;;;;;;;6268326;28;20037;-62
2022/01/08 11:16:14;;;;;;;23.65;10.13;;;;;;;;;;6268359;28;20057;-68
2022/01/08 11:19:15;;;;;;;23.17;11.07;;;;;;;;;;6265712;28;20056;-61
2022/01/08 11:22:19;;;;;;;19.33;9.30;;;;;;;;;;6268339;28;20041;-62
2022/01/08 11:25:32;;;;;;;21.05;8.88;;;;;;;;;;6269196;28;20064;-62
2022/01/08 11:28:35;;;;;;;;;;;;;;;;;;6270218;28;20518;-62
2022/01/08 11:31:37;;;;;;;15.70;7.70;;;;;;;;;;6268852;28;20023;-63
2022/01/08 11:34:41;;;;;;;16.85;8.57;;;;;;;;;;6270506;28;20090;-62
2022/01/08 11:37:49;;;;;;;21.70;8.30;;;;;;;;;;6265725;28;20072;-62
2022/01/08 11:40:52;;;;;;;18.67;8.60;;;;;;;;;;6268780;28;20063;-61
2022/01/08 11:43:55;;;;;;;36.20;15.40;;;;;;;;;;6270302;28;20080;-67
2022/01/08 11:46:56;;;;;;;23.58;9.25;;;;;;;;;;6262892;28;20048;-62
2022/01/08 11:50:03;;;;;;;23.13;9.98;;;;;;;;;;6268882;28;20041;-64
2022/01/08 11:53:11;;;;;;;26.65;10.95;;;;;;;;;;6269995;28;20075;-65
2022/01/08 11:56:34;;;;;;;24.27;9.95;;;;;;;;;;6264604;28;20060;-64
2022/01/08 11:59:35;;;;;;;19.52;9.35;;;;;;;;;;6263297;28;20476;-63
2022/01/08 12:02:39;;;;;;;21.48;9.90;;;;;;;;;;6263683;28;20140;-62
2022/01/08 12:05:40;;;;;;;27.77;10.32;;;;;;;;;;6264706;28;20099;-63
2022/01/08 12:09:10;;;;;;;20.58;9.23;;;;;;;;;;6263928;28;20488;-63
2022/01/08 12:12:11;;;;;;;21.45;8.95;;;;;;;;;;6264399;28;20079;-62
2022/01/08 12:15:12;;;;;;;24.58;10.95;;;;;;;;;;6264761;28;20128;-62
2022/01/08 12:18:27;;;;;;;29.55;14.18;;;;;;;;;;6265641;28;20052;-63
2022/01/08 12:21:37;;;;;;;27.15;11.32;;;;;;;;;;6270078;28;20048;-63
2022/01/08 12:24:38;;;;;;;23.02;11.13;;;;;;;;;;6269847;28;20067;-67
2022/01/08 12:27:45;;;;;;;48.80;20.08;;;;;;;;;;6270057;28;20052;-67
2022/01/08 12:30:46;;;;;;;66.88;28.42;;;;;;;;;;6269315;28;20422;-62
2022/01/08 12:33:47;;;;;;;36.85;17.15;;;;;;;;;;6268435;28;20097;-63
2022/01/08 12:36:59;;;;;;;27.17;11.50;;;;;;;;;;6265725;28;20048;-64
2022/01/08 12:39:59;;;;;;;23.70;10.52;;;;;;;;;;6264492;28;20118;-64
2022/01/08 12:43:17;;;;;;;22.42;10.65;;;;;;;;;;6268835;28;20476;-65
2022/01/08 12:46:22;;;;;;;29.48;13.27;;;;;;;;;;6268721;28;20095;-63
2022/01/08 12:49:22;;;;;;;28.35;12.07;;;;;;;;;;6272773;28;20140;-65
2022/01/08 12:52:23;;;;;;;29.27;12.15;;;;;;;;;;6271046;28;20480;-74
2022/01/08 12:55:24;;;;;;;72.43;35.33;;;;;;;;;;6266389;28;20606;-73
2022/01/08 12:58:36;;;;;;;44.80;23.40;;;;;;;;;;6269496;28;20052;-72
2022/01/08 13:01:39;;;;;;;;;;;;;;;;;;6270408;28;20045;-64
2022/01/08 13:04:40;;;;;;;34.00;15.70;;;;;;;;;;6265589;28;20326;-64
2022/01/08 13:07:51;;;;;;;26.60;13.57;;;;;;;;;;6267573;28;20045;-64
2022/01/08 13:11:00;;;;;;;25.13;10.30;;;;;;;;;;6270383;28;20044;-63
2022/01/08 13:14:03;;;;;;;25.25;11.00;;;;;;;;;;6272685;28;20045;-64
2022/01/08 13:17:05;;;;;;;25.00;10.70;;;;;;;;;;6271588;28;20091;-62
2022/01/08 13:20:07;;;;;;;24.15;10.40;;;;;;;;;;6273009;28;20049;-65
2022/01/08 13:23:09;;;;;;;;;;;;;;;;;;6270731;28;20045;-68
2022/01/08 13:26:10;;;;;;;26.48;10.45;;;;;;;;;;6272313;28;19921;-62
2022/01/08 13:29:33;;;;;;;23.30;10.27;;;;;;;;;;6272452;28;20130;-62
2022/01/08 13:32:35;;;;;;;;;;;;;;;;;;6273099;28;20597;-62
2022/01/08 13:35:36;;;;;;;24.10;10.38;;;;;;;;;;6253179;28;20524;-64
2022/01/08 13:38:37;;;;;;;24.65;12.43;;;;;;;;;;6259533;28;20051;-63
2022/01/08 13:41:37;;;;;;;27.38;11.73;;;;;;;;;;6257068;28;20053;-63
2022/01/08 13:44:59;;;;;;;28.42;11.43;;;;;;;;;;6257195;28;21213;-67
2022/01/08 13:48:02;;;;;;;26.33;10.30;;;;;;;;;;6249163;28;20097;-63
2022/01/08 13:51:06;;;;;;;23.33;10.02;;;;;;;;;;6256903;28;20137;-65
2022/01/08 13:54:08;;;;;;;28.58;13.23;;;;;;;;;;6258166;28;20049;-64
2022/01/08 13:57:16;;;;;;;25.13;11.93;;;;;;;;;;6259834;28;20135;-64
2022/01/08 14:00:22;;;;;;;32.35;16.90;;;;;;;;;;6258168;28;20052;-64
2022/01/08 14:03:25;;;;;;;37.38;20.08;;;;;;;;;;6258722;28;20063;-64
2022/01/08 14:06:27;;;;;;;68.55;39.60;;;;;;;;;;6257010;28;20057;-64
2022/01/08 14:09:28;;;;;;;51.28;27.92;;;;;;;;;;6259108;28;20171;-63
2022/01/08 14:12:28;;;;;;;52.97;24.63;;;;;;;;;;6258029;28;20053;-64
2022/01/08 14:15:29;;;;;;;34.40;15.13;;;;;;;;;;6256517;28;20094;-64
2022/01/08 14:18:31;;;;;;;44.08;22.73;;;;;;;;;;6258291;28;20126;-60
2022/01/08 14:21:31;;;;;;;34.28;16.00;;;;;;;;;;6256480;28;20079;-61
2022/01/08 14:24:35;;;;;;;35.22;17.08;;;;;;;;;;6255488;28;20140;-61
2022/01/08 14:27:38;;;;;;;29.35;12.57;;;;;;;;;;6257378;28;20056;-61
2022/01/08 14:30:39;;;;;;;28.63;15.23;;;;;;;;;;6253723;28;20132;-61
2022/01/08 14:34:03;;;;;;;41.08;19.13;;;;;;;;;;6257470;28;20499;-63
2022/01/08 14:37:03;;;;;;;63.78;23.40;;;;;;;;;;6251992;28;20159;-64
2022/01/08 14:40:28;;;;;;;233.43;64.65;;;;;;;;;;6256941;28;21381;-61
2022/01/08 14:43:28;;;;;;;72.57;23.80;;;;;;;;;;6256286;28;20151;-61
2022/01/08 14:46:29;;;;;;;109.20;44.03;;;;;;;;;;6256680;28;20063;-62
2022/01/08 14:49:30;;;;;;;104.28;40.55;;;;;;;;;;6256587;28;20857;-63
2022/01/08 14:52:31;;;;;;;75.78;30.45;;;;;;;;;;6254465;28;20049;-61
2022/01/08 14:55:37;;;;;;;89.18;38.00;;;;;;;;;;6252616;28;20080;-62
2022/01/08 14:58:39;;;;;;;50.80;22.35;;;;;;;;;;6255279;28;20049;-61
2022/01/08 15:01:40;;;;;;;48.95;21.08;;;;;;;;;;6254768;28;20136;-63
2022/01/08 15:04:43;;;;;;;71.40;28.85;;;;;;;;;;6250638;28;20143;-63
2022/01/08 15:07:44;;;;;;;58.50;24.58;;;;;;;;;;6254779;28;20047;-63
2022/01/08 15:10:45;;;;;;;43.85;18.80;;;;;;;;;;6255536;28;20061;-61
2022/01/08 15:13:46;;;;;;;42.92;19.67;;;;;;;;;;6252732;28;20248;-62
2022/01/08 15:16:46;;;;;;;52.40;19.80;;;;;;;;;;6256193;28;20045;-62
2022/01/08 15:19:48;;;;;;;36.53;15.43;;;;;;;;;;6256305;28;20076;-62
2022/01/08 15:22:48;;;;;;;29.48;14.20;;;;;;;;;;6255157;28;20464;-63
2022/01/08 15:25:49;;;;;;;42.80;17.73;;;;;;;;;;6255766;28;20084;-63
2022/01/08 15:28:50;;;;;;;65.88;26.50;;;;;;;;;;6253262;28;20788;-63
2022/01/08 15:31:51;;;;;;;69.63;28.33;;;;;;;;;;6256066;28;20053;-64
2022/01/08 15:34:52;;;;;;;75.90;29.60;;;;;;;;;;6251005;28;20053;-63
2022/01/08 15:37:53;;;;;;;83.18;30.33;;;;;;;;;;6255084;28;20165;-63
2022/01/08 15:40:53;;;;;;;71.07;27.67;;;;;;;;;;6257426;28;20045;-64
2022/01/08 15:43:54;;;;;;;67.78;27.45;;;;;;;;;;6253040;28;20045;-64
2022/01/08 15:46:54;;;;;;;51.47;20.20;;;;;;;;;;6256298;28;20033;-63
2022/01/08 15:49:55;;;;;;;40.53;17.38;;;;;;;;;;6256901;28;20411;-65
2022/01/08 15:52:58;;;;;;;39.40;15.85;;;;;;;;;;6256641;28;20415;-64
2022/01/08 15:55:59;;;;;;;42.78;18.88;;;;;;;;;;6253325;28;20760;-65
2022/01/08 15:59:00;;;;;;;43.72;19.30;;;;;;;;;;6253937;28;20049;-65
2022/01/08 16:02:01;;;;;;;45.13;17.38;;;;;;;;;;6257568;28;20053;-63
2022/01/08 16:05:02;;;;;;;43.45;19.25;;;;;;;;;;6253237;28;20051;-63
2022/01/08 16:08:04;;;;;;;45.15;21.15;;;;;;;;;;6255371;28;20099;-64
2022/01/08 16:11:05;;;;;;;30.20;14.47;;;;;;;;;;6256379;28;20041;-63
2022/01/08 16:14:06;;;;;;;45.78;21.10;;;;;;;;;;6252378;28;20122;-63
2022/01/08 16:17:07;;;;;;;45.70;20.45;;;;;;;;;;6255787;28;20563;-62
2022/01/08 16:20:08;;;;;;;96.00;28.25;;;;;;;;;;6255523;28;20262;-63
2022/01/08 16:23:10;;;;;;;160.65;40.40;;;;;;;;;;6254802;28;20080;-62
2022/01/08 16:26:11;;;;;;;113.53;30.23;;;;;;;;;;6253811;28;20084;-63
2022/01/08 16:29:12;;;;;;;56.78;24.63;;;;;;;;;;6254888;28;20775;-62
2022/01/08 16:32:12;;;;;;;48.17;21.52;;;;;;;;;;6255643;28;20455;-63
2022/01/08 16:35:13;;;;;;;59.13;24.98;;;;;;;;;;6253011;28;20037;-63
2022/01/08 16:38:15;;;;;;;75.03;30.40;;;;;;;;;;6256489;28;20136;-64
2022/01/08 16:41:16;;;;;;;80.43;33.67;;;;;;;;;;6256443;28;20056;-62
2022/01/08 16:44:17;;;;;;;93.10;37.20;;;;;;;;;;6252670;28;20088;-63
2022/01/08 16:47:18;;;;;;;74.00;29.77;;;;;;;;;;6259989;28;20412;-63
2022/01/08 16:50:20;;;;;;;77.78;32.83;;;;;;;;;;6260762;28;20072;-63
2022/01/08 16:53:20;;;;;;;63.00;27.75;;;;;;;;;;6259122;28;20542;-62
2022/01/08 16:56:21;;;;;;;61.33;26.05;;;;;;;;;;6259493;28;20156;-62
2022/01/08 16:59:21;;;;;;;95.68;34.03;;;;;;;;;;6261825;28;20383;-61
2022/01/08 17:02:22;;;;;;;211.70;59.42;;;;;;;;;;6259165;28;20056;-63
2022/01/08 17:05:23;;;;;;;193.13;62.20;;;;;;;;;;6254894;28;21525;-63
2022/01/08 17:08:23;;;;;;;132.18;49.75;;;;;;;;;;6260467;28;20053;-62
2022/01/08 17:11:24;;;;;;;120.97;45.92;;;;;;;;;;6258027;28;20492;-63
2022/01/08 17:14:25;;;;;;;104.13;45.55;;;;;;;;;;6255530;28;20136;-62
2022/01/08 17:17:26;;;;;;;122.25;51.83;;;;;;;;;;6259272;28;20080;-62
2022/01/08 17:20:29;;;;;;;120.95;49.67;;;;;;;;;;6258441;28;20143;-62
2022/01/08 17:23:29;;;;;;;116.32;50.50;;;;;;;;;;6260145;28;20056;-62
2022/01/08 17:26:30;;;;;;;162.40;63.67;;;;;;;;;;6260942;28;20056;-62
2022/01/08 17:29:31;;;;;;;181.48;68.75;;;;;;;;;;6258063;28;20049;-64
2022/01/08 17:32:32;;;;;;;220.05;77.78;;;;;;;;;;6258142;28;20095;-62
2022/01/08 17:35:32;;;;;;;224.73;73.60;;;;;;;;;;6256721;28;20056;-63
2022/01/08 17:38:33;;;;;;;201.30;66.50;;;;;;;;;;6261045;28;20084;-62
2022/01/08 17:41:34;;;;;;;150.80;52.55;;;;;;;;;;6259855;28;20061;-62
2022/01/08 17:44:35;;;;;;;142.27;49.72;;;;;;;;;;6257435;28;20851;-64
2022/01/08 17:47:35;;;;;;;116.10;43.78;;;;;;;;;;6261091;28;20106;-62
2022/01/08 17:50:37;;;;;;;93.55;37.55;;;;;;;;;;6259937;28;20533;-63
2022/01/08 17:53:38;;;;;;;105.43;40.33;;;;;;;;;;6257226;28;20060;-66
2022/01/08 17:56:39;;;;;;;104.00;40.83;;;;;;;;;;6258505;28;20167;-66
2022/01/08 17:59:40;;;;;;;108.10;45.17;;;;;;;;;;6258496;28;20080;-63